sensor_id;sensor_type;location;lat;lon;timestamp;P1;durP1;ratioP1;P2;durP2;ratioP2
79638;SDS011;69114;49.108;8.280;2024-03-02T00:00:03;16.67;;;11.05;;
79638;SDS011;69114;49.108;8.280;2024-03-02T00:02:43;18.60;;;11.63;;
79638;SDS011;69114;49.108;8.280;2024-03-02T00:05:12;17.90;;;11.00;;
79638;SDS011;69114;49.108;8.280;2024-03-02T00:07:42;18.63;;;11.50;;
79638;SDS011;69114;49.108;8.280;2024-03-02T00:10:09;18.67;;;10.93;;
79638;SDS011;69114;49.108;8.280;2024-03-02T00:12:37;18.60;;;12.48;;
79638;SDS011;69114;49.108;8.280;2024-03-02T00:15:06;16.17;;;10.82;;
79638;SDS011;69114;49.108;8.280;2024-03-02T00:17:54;19.77;;;10.77;;
79638;SDS011;69114;49.108;8.280;2024-03-02T00:20:21;18.45;;;11.23;;
79638;SDS011;69114;49.108;8.280;2024-03-02T00:22:48;20.52;;;11.45;;
79638;SDS011;69114;49.108;8.280;2024-03-02T00:25:13;19.17;;;11.15;;
79638;SDS011;69114;49.108;8.280;2024-03-02T00:27:39;17.92;;;10.75;;
79638;SDS011;69114;49.108;8.280;2024-03-02T00:30:06;16.33;;;10.35;;
79638;SDS011;69114;49.108;8.280;2024-03-02T00:32:52;16.60;;;10.00;;
79638;SDS011;69114;49.108;8.280;2024-03-02T00:35:18;19.55;;;11.95;;
79638;SDS011;69114;49.108;8.280;2024-03-02T00:37:47;21.90;;;12.00;;
79638;SDS011;69114;49.108;8.280;2024-03-02T00:40:13;17.52;;;10.93;;
79638;SDS011;69114;49.108;8.280;2024-03-02T00:42:39;15.45;;;10.50;;
79638;SDS011;69114;49.108;8.280;2024-03-02T00:45:07;15.10;;;9.97;;
79638;SDS011;69114;49.108;8.280;2024-03-02T00:47:37;19.52;;;11.10;;
79638;SDS011;69114;49.108;8.280;2024-03-02T00:52:29;16.30;;;10.38;;
79638;SDS011;69114;49.108;8.280;2024-03-02T00:54:56;20.33;;;10.27;;
79638;SDS011;69114;49.108;8.280;2024-03-02T00:57:22;18.63;;;10.55;;
79638;SDS011;69114;49.108;8.280;2024-03-02T00:59:50;19.50;;;11.00;;
79638;SDS011;69114;49.108;8.280;2024-03-02T01:02:16;20.33;;;11.93;;
79638;SDS011;69114;49.108;8.280;2024-03-02T01:04:41;16.45;;;10.80;;
79638;SDS011;69114;49.108;8.280;2024-03-02T01:07:07;15.23;;;11.03;;
79638;SDS011;69114;49.108;8.280;2024-03-02T01:09:32;16.90;;;11.27;;
79638;SDS011;69114;49.108;8.280;2024-03-02T01:11:57;20.00;;;12.50;;
79638;SDS011;69114;49.108;8.280;2024-03-02T01:14:22;18.75;;;11.90;;
79638;SDS011;69114;49.108;8.280;2024-03-02T01:16:48;19.27;;;11.98;;
79638;SDS011;69114;49.108;8.280;2024-03-02T01:19:14;17.42;;;10.95;;
79638;SDS011;69114;49.108;8.280;2024-03-02T01:21:39;18.58;;;10.85;;
79638;SDS011;69114;49.108;8.280;2024-03-02T01:24:05;17.98;;;11.15;;
79638;SDS011;69114;49.108;8.280;2024-03-02T01:26:30;17.05;;;10.18;;
79638;SDS011;69114;49.108;8.280;2024-03-02T01:28:56;18.23;;;11.18;;
79638;SDS011;69114;49.108;8.280;2024-03-02T01:31:21;17.13;;;11.20;;
79638;SDS011;69114;49.108;8.280;2024-03-02T01:33:46;20.63;;;12.73;;
79638;SDS011;69114;49.108;8.280;2024-03-02T01:36:12;21.33;;;12.67;;
79638;SDS011;69114;49.108;8.280;2024-03-02T01:38:37;19.50;;;11.83;;
79638;SDS011;69114;49.108;8.280;2024-03-02T01:41:02;20.63;;;12.02;;
79638;SDS011;69114;49.108;8.280;2024-03-02T01:43:28;21.88;;;12.18;;
79638;SDS011;69114;49.108;8.280;2024-03-02T01:45:53;19.92;;;12.32;;
79638;SDS011;69114;49.108;8.280;2024-03-02T01:48:18;19.02;;;11.43;;
79638;SDS011;69114;49.108;8.280;2024-03-02T01:50:44;17.80;;;10.57;;
79638;SDS011;69114;49.108;8.280;2024-03-02T01:53:09;17.88;;;10.68;;
79638;SDS011;69114;49.108;8.280;2024-03-02T01:55:35;14.38;;;10.25;;
79638;SDS011;69114;49.108;8.280;2024-03-02T01:58:00;15.90;;;9.63;;
79638;SDS011;69114;49.108;8.280;2024-03-02T02:00:26;19.52;;;11.02;;
79638;SDS011;69114;49.108;8.280;2024-03-02T02:02:52;17.55;;;10.98;;
79638;SDS011;69114;49.108;8.280;2024-03-02T02:05:18;17.58;;;11.13;;
79638;SDS011;69114;49.108;8.280;2024-03-02T02:07:43;19.33;;;11.57;;
79638;SDS011;69114;49.108;8.280;2024-03-02T02:10:12;16.98;;;10.57;;
79638;SDS011;69114;49.108;8.280;2024-03-02T02:12:37;18.75;;;11.35;;
79638;SDS011;69114;49.108;8.280;2024-03-02T02:15:03;18.08;;;11.25;;
79638;SDS011;69114;49.108;8.280;2024-03-02T02:17:47;24.73;;;13.32;;
79638;SDS011;69114;49.108;8.280;2024-03-02T02:20:13;21.63;;;12.45;;
79638;SDS011;69114;49.108;8.280;2024-03-02T02:22:38;100.65;;;53.80;;
79638;SDS011;69114;49.108;8.280;2024-03-02T02:25:04;15.93;;;10.77;;
79638;SDS011;69114;49.108;8.280;2024-03-02T02:27:29;15.55;;;8.35;;
79638;SDS011;69114;49.108;8.280;2024-03-02T02:29:55;12.98;;;8.27;;
79638;SDS011;69114;49.108;8.280;2024-03-02T02:32:21;13.02;;;8.50;;
79638;SDS011;69114;49.108;8.280;2024-03-02T02:34:46;17.50;;;9.50;;
79638;SDS011;69114;49.108;8.280;2024-03-02T02:37:11;16.50;;;11.03;;
79638;SDS011;69114;49.108;8.280;2024-03-02T02:39:37;17.73;;;10.53;;
79638;SDS011;69114;49.108;8.280;2024-03-02T02:42:02;19.13;;;11.25;;
79638;SDS011;69114;49.108;8.280;2024-03-02T02:44:28;19.17;;;11.35;;
79638;SDS011;69114;49.108;8.280;2024-03-02T02:46:53;18.50;;;12.20;;
79638;SDS011;69114;49.108;8.280;2024-03-02T02:49:18;25.27;;;12.80;;
79638;SDS011;69114;49.108;8.280;2024-03-02T02:51:43;19.50;;;12.50;;
79638;SDS011;69114;49.108;8.280;2024-03-02T02:54:09;19.58;;;11.85;;
79638;SDS011;69114;49.108;8.280;2024-03-02T02:56:34;19.97;;;11.63;;
79638;SDS011;69114;49.108;8.280;2024-03-02T02:59:00;19.58;;;12.05;;
79638;SDS011;69114;49.108;8.280;2024-03-02T03:01:25;17.92;;;10.30;;
79638;SDS011;69114;49.108;8.280;2024-03-02T03:03:50;21.98;;;12.38;;
79638;SDS011;69114;49.108;8.280;2024-03-02T03:06:16;17.00;;;10.80;;
79638;SDS011;69114;49.108;8.280;2024-03-02T03:08:41;16.48;;;10.45;;
79638;SDS011;69114;49.108;8.280;2024-03-02T03:11:06;18.58;;;11.63;;
79638;SDS011;69114;49.108;8.280;2024-03-02T03:13:32;16.55;;;11.07;;
79638;SDS011;69114;49.108;8.280;2024-03-02T03:15:57;17.63;;;10.93;;
79638;SDS011;69114;49.108;8.280;2024-03-02T03:18:23;18.98;;;10.68;;
79638;SDS011;69114;49.108;8.280;2024-03-02T03:20:48;17.70;;;11.20;;
79638;SDS011;69114;49.108;8.280;2024-03-02T03:23:13;21.42;;;12.65;;
79638;SDS011;69114;49.108;8.280;2024-03-02T03:25:41;18.17;;;10.75;;
79638;SDS011;69114;49.108;8.280;2024-03-02T03:28:07;16.13;;;10.70;;
79638;SDS011;69114;49.108;8.280;2024-03-02T03:30:35;19.20;;;11.65;;
79638;SDS011;69114;49.108;8.280;2024-03-02T03:33:02;20.38;;;11.15;;
79638;SDS011;69114;49.108;8.280;2024-03-02T03:35:27;22.95;;;11.75;;
79638;SDS011;69114;49.108;8.280;2024-03-02T03:37:52;15.43;;;9.97;;
79638;SDS011;69114;49.108;8.280;2024-03-02T03:40:18;15.90;;;9.03;;
79638;SDS011;69114;49.108;8.280;2024-03-02T03:42:43;16.70;;;9.93;;
79638;SDS011;69114;49.108;8.280;2024-03-02T03:45:09;16.08;;;10.50;;
79638;SDS011;69114;49.108;8.280;2024-03-02T03:47:35;16.95;;;9.32;;
79638;SDS011;69114;49.108;8.280;2024-03-02T03:50:00;18.90;;;10.43;;
79638;SDS011;69114;49.108;8.280;2024-03-02T03:52:25;20.35;;;11.75;;
79638;SDS011;69114;49.108;8.280;2024-03-02T03:54:50;18.27;;;10.52;;
79638;SDS011;69114;49.108;8.280;2024-03-02T03:57:16;19.48;;;11.52;;
79638;SDS011;69114;49.108;8.280;2024-03-02T03:59:42;21.85;;;12.27;;
79638;SDS011;69114;49.108;8.280;2024-03-02T04:02:08;17.38;;;11.32;;
79638;SDS011;69114;49.108;8.280;2024-03-02T04:04:34;16.88;;;11.05;;
79638;SDS011;69114;49.108;8.280;2024-03-02T04:06:59;16.58;;;10.38;;
79638;SDS011;69114;49.108;8.280;2024-03-02T04:09:25;13.45;;;9.27;;
79638;SDS011;69114;49.108;8.280;2024-03-02T04:11:50;16.40;;;9.48;;
79638;SDS011;69114;49.108;8.280;2024-03-02T04:14:16;15.02;;;9.02;;
79638;SDS011;69114;49.108;8.280;2024-03-02T04:16:41;15.75;;;9.32;;
79638;SDS011;69114;49.108;8.280;2024-03-02T04:19:06;21.87;;;10.23;;
79638;SDS011;69114;49.108;8.280;2024-03-02T04:21:32;15.48;;;9.30;;
79638;SDS011;69114;49.108;8.280;2024-03-02T04:23:57;16.40;;;10.00;;
79638;SDS011;69114;49.108;8.280;2024-03-02T04:26:24;13.52;;;8.45;;
79638;SDS011;69114;49.108;8.280;2024-03-02T04:28:50;14.20;;;9.15;;
79638;SDS011;69114;49.108;8.280;2024-03-02T04:31:16;11.20;;;7.47;;
79638;SDS011;69114;49.108;8.280;2024-03-02T04:33:41;15.23;;;8.85;;
79638;SDS011;69114;49.108;8.280;2024-03-02T04:36:07;15.05;;;9.27;;
79638;SDS011;69114;49.108;8.280;2024-03-02T04:38:34;16.23;;;10.25;;
79638;SDS011;69114;49.108;8.280;2024-03-02T04:41:00;14.15;;;10.02;;
79638;SDS011;69114;49.108;8.280;2024-03-02T04:43:25;17.55;;;10.80;;
79638;SDS011;69114;49.108;8.280;2024-03-02T04:45:50;15.87;;;9.20;;
79638;SDS011;69114;49.108;8.280;2024-03-02T04:48:16;15.50;;;9.98;;
79638;SDS011;69114;49.108;8.280;2024-03-02T04:50:41;13.53;;;9.07;;
79638;SDS011;69114;49.108;8.280;2024-03-02T04:53:06;14.57;;;9.53;;
79638;SDS011;69114;49.108;8.280;2024-03-02T04:55:32;16.00;;;9.40;;
79638;SDS011;69114;49.108;8.280;2024-03-02T04:58:00;14.30;;;8.65;;
79638;SDS011;69114;49.108;8.280;2024-03-02T05:00:25;17.33;;;9.60;;
79638;SDS011;69114;49.108;8.280;2024-03-02T05:02:50;19.13;;;10.87;;
79638;SDS011;69114;49.108;8.280;2024-03-02T05:05:16;15.05;;;9.05;;
79638;SDS011;69114;49.108;8.280;2024-03-02T05:07:42;16.45;;;9.35;;
79638;SDS011;69114;49.108;8.280;2024-03-02T05:10:08;14.57;;;9.55;;
79638;SDS011;69114;49.108;8.280;2024-03-02T05:12:34;15.10;;;9.60;;
79638;SDS011;69114;49.108;8.280;2024-03-02T05:15:09;15.52;;;8.95;;
79638;SDS011;69114;49.108;8.280;2024-03-02T05:17:39;15.18;;;9.45;;
79638;SDS011;69114;49.108;8.280;2024-03-02T05:20:05;15.68;;;9.07;;
79638;SDS011;69114;49.108;8.280;2024-03-02T05:22:33;14.30;;;9.98;;
79638;SDS011;69114;49.108;8.280;2024-03-02T05:24:59;16.73;;;9.25;;
79638;SDS011;69114;49.108;8.280;2024-03-02T05:27:25;15.82;;;9.60;;
79638;SDS011;69114;49.108;8.280;2024-03-02T05:29:51;14.90;;;9.98;;
79638;SDS011;69114;49.108;8.280;2024-03-02T05:32:16;16.75;;;9.63;;
79638;SDS011;69114;49.108;8.280;2024-03-02T05:34:41;17.90;;;9.97;;
79638;SDS011;69114;49.108;8.280;2024-03-02T05:37:07;14.85;;;9.93;;
79638;SDS011;69114;49.108;8.280;2024-03-02T05:39:32;16.17;;;10.23;;
79638;SDS011;69114;49.108;8.280;2024-03-02T05:41:57;18.83;;;11.50;;
79638;SDS011;69114;49.108;8.280;2024-03-02T05:44:23;17.03;;;10.70;;
79638;SDS011;69114;49.108;8.280;2024-03-02T05:46:48;18.33;;;11.73;;
79638;SDS011;69114;49.108;8.280;2024-03-02T05:49:13;17.85;;;10.38;;
79638;SDS011;69114;49.108;8.280;2024-03-02T05:51:39;15.50;;;10.13;;
79638;SDS011;69114;49.108;8.280;2024-03-02T05:54:04;13.65;;;8.65;;
79638;SDS011;69114;49.108;8.280;2024-03-02T05:56:29;16.60;;;9.13;;
79638;SDS011;69114;49.108;8.280;2024-03-02T05:58:55;15.63;;;8.45;;
79638;SDS011;69114;49.108;8.280;2024-03-02T06:01:39;14.02;;;9.02;;
79638;SDS011;69114;49.108;8.280;2024-03-02T06:04:08;14.98;;;9.30;;
79638;SDS011;69114;49.108;8.280;2024-03-02T06:06:34;13.20;;;8.43;;
79638;SDS011;69114;49.108;8.280;2024-03-02T06:09:00;12.55;;;9.20;;
79638;SDS011;69114;49.108;8.280;2024-03-02T06:11:27;12.32;;;7.78;;
79638;SDS011;69114;49.108;8.280;2024-03-02T06:13:53;13.10;;;7.65;;
79638;SDS011;69114;49.108;8.280;2024-03-02T06:16:18;14.95;;;8.18;;
79638;SDS011;69114;49.108;8.280;2024-03-02T06:18:43;13.40;;;8.57;;
79638;SDS011;69114;49.108;8.280;2024-03-02T06:21:08;11.27;;;8.00;;
79638;SDS011;69114;49.108;8.280;2024-03-02T06:23:34;14.88;;;8.07;;
79638;SDS011;69114;49.108;8.280;2024-03-02T06:26:00;13.27;;;7.45;;
79638;SDS011;69114;49.108;8.280;2024-03-02T06:28:28;11.55;;;7.57;;
79638;SDS011;69114;49.108;8.280;2024-03-02T06:30:53;13.05;;;8.30;;
79638;SDS011;69114;49.108;8.280;2024-03-02T06:33:19;14.07;;;8.75;;
79638;SDS011;69114;49.108;8.280;2024-03-02T06:35:44;12.25;;;8.35;;
79638;SDS011;69114;49.108;8.280;2024-03-02T06:38:09;12.30;;;7.55;;
79638;SDS011;69114;49.108;8.280;2024-03-02T06:40:35;14.18;;;8.05;;
79638;SDS011;69114;49.108;8.280;2024-03-02T06:43:02;11.30;;;7.68;;
79638;SDS011;69114;49.108;8.280;2024-03-02T06:45:28;11.63;;;7.38;;
79638;SDS011;69114;49.108;8.280;2024-03-02T06:47:55;9.80;;;7.00;;
79638;SDS011;69114;49.108;8.280;2024-03-02T06:50:21;9.85;;;6.70;;
79638;SDS011;69114;49.108;8.280;2024-03-02T06:52:46;10.68;;;7.20;;
79638;SDS011;69114;49.108;8.280;2024-03-02T06:55:12;11.37;;;7.17;;
79638;SDS011;69114;49.108;8.280;2024-03-02T06:57:37;12.57;;;9.05;;
79638;SDS011;69114;49.108;8.280;2024-03-02T07:00:02;13.37;;;8.03;;
79638;SDS011;69114;49.108;8.280;2024-03-02T07:02:30;14.15;;;9.88;;
79638;SDS011;69114;49.108;8.280;2024-03-02T07:04:55;9.82;;;7.30;;
79638;SDS011;69114;49.108;8.280;2024-03-02T07:07:21;11.25;;;7.75;;
79638;SDS011;69114;49.108;8.280;2024-03-02T07:09:46;13.85;;;9.10;;
79638;SDS011;69114;49.108;8.280;2024-03-02T07:12:12;14.60;;;8.50;;
79638;SDS011;69114;49.108;8.280;2024-03-02T07:14:38;17.10;;;11.15;;
79638;SDS011;69114;49.108;8.280;2024-03-02T07:17:33;18.55;;;10.65;;
79638;SDS011;69114;49.108;8.280;2024-03-02T07:19:59;14.13;;;10.05;;
79638;SDS011;69114;49.108;8.280;2024-03-02T07:22:24;16.33;;;9.85;;
79638;SDS011;69114;49.108;8.280;2024-03-02T07:24:49;15.77;;;10.13;;
79638;SDS011;69114;49.108;8.280;2024-03-02T07:27:15;12.82;;;9.10;;
79638;SDS011;69114;49.108;8.280;2024-03-02T07:29:42;15.40;;;9.82;;
79638;SDS011;69114;49.108;8.280;2024-03-02T07:32:08;19.17;;;12.20;;
79638;SDS011;69114;49.108;8.280;2024-03-02T07:34:34;14.23;;;10.00;;
79638;SDS011;69114;49.108;8.280;2024-03-02T07:37:00;22.95;;;14.23;;
79638;SDS011;69114;49.108;8.280;2024-03-02T07:39:26;23.20;;;14.75;;
79638;SDS011;69114;49.108;8.280;2024-03-02T07:41:51;23.55;;;15.98;;
79638;SDS011;69114;49.108;8.280;2024-03-02T07:44:17;20.65;;;13.25;;
79638;SDS011;69114;49.108;8.280;2024-03-02T07:46:44;18.55;;;11.95;;
79638;SDS011;69114;49.108;8.280;2024-03-02T07:49:17;20.58;;;13.00;;
79638;SDS011;69114;49.108;8.280;2024-03-02T07:51:43;18.25;;;11.27;;
79638;SDS011;69114;49.108;8.280;2024-03-02T07:54:09;16.80;;;10.77;;
79638;SDS011;69114;49.108;8.280;2024-03-02T07:56:34;15.52;;;10.35;;
79638;SDS011;69114;49.108;8.280;2024-03-02T07:59:01;13.77;;;9.55;;
79638;SDS011;69114;49.108;8.280;2024-03-02T08:01:30;16.60;;;11.13;;
79638;SDS011;69114;49.108;8.280;2024-03-02T08:04:00;11.00;;;8.25;;
79638;SDS011;69114;49.108;8.280;2024-03-02T08:06:26;17.17;;;8.77;;
79638;SDS011;69114;49.108;8.280;2024-03-02T08:08:55;12.15;;;8.35;;
79638;SDS011;69114;49.108;8.280;2024-03-02T08:11:21;11.73;;;8.32;;
79638;SDS011;69114;49.108;8.280;2024-03-02T08:13:47;11.55;;;7.97;;
79638;SDS011;69114;49.108;8.280;2024-03-02T08:16:16;10.57;;;7.57;;
79638;SDS011;69114;49.108;8.280;2024-03-02T08:18:44;11.30;;;7.53;;
79638;SDS011;69114;49.108;8.280;2024-03-02T08:21:11;8.85;;;6.15;;
79638;SDS011;69114;49.108;8.280;2024-03-02T08:23:36;10.30;;;5.80;;
79638;SDS011;69114;49.108;8.280;2024-03-02T08:26:02;8.43;;;5.30;;
79638;SDS011;69114;49.108;8.280;2024-03-02T08:28:28;7.05;;;5.20;;
79638;SDS011;69114;49.108;8.280;2024-03-02T08:30:53;7.97;;;4.95;;
79638;SDS011;69114;49.108;8.280;2024-03-02T08:33:18;12.30;;;8.00;;
79638;SDS011;69114;49.108;8.280;2024-03-02T08:35:44;7.57;;;4.70;;
79638;SDS011;69114;49.108;8.280;2024-03-02T08:38:09;5.85;;;4.78;;
79638;SDS011;69114;49.108;8.280;2024-03-02T08:40:35;6.38;;;4.82;;
79638;SDS011;69114;49.108;8.280;2024-03-02T08:43:00;5.93;;;4.90;;
79638;SDS011;69114;49.108;8.280;2024-03-02T08:45:25;7.07;;;5.78;;
79638;SDS011;69114;49.108;8.280;2024-03-02T08:47:51;7.05;;;5.50;;
79638;SDS011;69114;49.108;8.280;2024-03-02T08:50:16;6.93;;;5.45;;
79638;SDS011;69114;49.108;8.280;2024-03-02T08:52:51;9.05;;;6.68;;
79638;SDS011;69114;49.108;8.280;2024-03-02T08:55:16;8.75;;;5.63;;
79638;SDS011;69114;49.108;8.280;2024-03-02T08:57:42;8.77;;;5.57;;
79638;SDS011;69114;49.108;8.280;2024-03-02T09:00:07;8.63;;;5.35;;
79638;SDS011;69114;49.108;8.280;2024-03-02T09:02:33;8.13;;;5.63;;
79638;SDS011;69114;49.108;8.280;2024-03-02T09:04:59;8.57;;;5.53;;
79638;SDS011;69114;49.108;8.280;2024-03-02T09:07:24;8.85;;;5.15;;
79638;SDS011;69114;49.108;8.280;2024-03-02T09:09:50;6.07;;;5.17;;
79638;SDS011;69114;49.108;8.280;2024-03-02T09:12:15;6.95;;;4.97;;
79638;SDS011;69114;49.108;8.280;2024-03-02T09:14:40;8.52;;;5.47;;
79638;SDS011;69114;49.108;8.280;2024-03-02T09:17:06;10.57;;;5.85;;
79638;SDS011;69114;49.108;8.280;2024-03-02T09:19:33;8.23;;;5.60;;
79638;SDS011;69114;49.108;8.280;2024-03-02T09:21:58;9.50;;;5.70;;
79638;SDS011;69114;49.108;8.280;2024-03-02T09:24:23;7.40;;;4.38;;
79638;SDS011;69114;49.108;8.280;2024-03-02T09:26:49;9.30;;;5.25;;
79638;SDS011;69114;49.108;8.280;2024-03-02T09:29:15;8.13;;;5.07;;
79638;SDS011;69114;49.108;8.280;2024-03-02T09:31:40;9.95;;;5.45;;
79638;SDS011;69114;49.108;8.280;2024-03-02T09:34:06;6.97;;;5.63;;
79638;SDS011;69114;49.108;8.280;2024-03-02T09:36:32;7.07;;;5.03;;
79638;SDS011;69114;49.108;8.280;2024-03-02T09:38:57;9.68;;;5.53;;
79638;SDS011;69114;49.108;8.280;2024-03-02T09:41:22;8.30;;;5.43;;
79638;SDS011;69114;49.108;8.280;2024-03-02T09:43:48;7.93;;;5.35;;
79638;SDS011;69114;49.108;8.280;2024-03-02T09:46:14;8.40;;;5.00;;
79638;SDS011;69114;49.108;8.280;2024-03-02T09:48:40;8.05;;;5.40;;
79638;SDS011;69114;49.108;8.280;2024-03-02T09:51:05;6.88;;;5.10;;
79638;SDS011;69114;49.108;8.280;2024-03-02T09:53:31;6.13;;;3.63;;
79638;SDS011;69114;49.108;8.280;2024-03-02T09:56:01;7.78;;;4.63;;
79638;SDS011;69114;49.108;8.280;2024-03-02T09:58:27;9.65;;;5.20;;
79638;SDS011;69114;49.108;8.280;2024-03-02T10:00:52;5.35;;;4.43;;
79638;SDS011;69114;49.108;8.280;2024-03-02T10:03:21;5.82;;;4.05;;
79638;SDS011;69114;49.108;8.280;2024-03-02T10:05:48;4.30;;;3.28;;
79638;SDS011;69114;49.108;8.280;2024-03-02T10:08:13;5.50;;;3.40;;
79638;SDS011;69114;49.108;8.280;2024-03-02T10:10:39;6.30;;;3.97;;
79638;SDS011;69114;49.108;8.280;2024-03-02T10:13:07;8.38;;;4.22;;
79638;SDS011;69114;49.108;8.280;2024-03-02T10:15:33;5.47;;;4.10;;
79638;SDS011;69114;49.108;8.280;2024-03-02T10:17:59;5.35;;;4.00;;
79638;SDS011;69114;49.108;8.280;2024-03-02T10:20:25;6.60;;;3.85;;
79638;SDS011;69114;49.108;8.280;2024-03-02T10:22:53;6.43;;;3.92;;
79638;SDS011;69114;49.108;8.280;2024-03-02T10:25:28;6.82;;;3.67;;
79638;SDS011;69114;49.108;8.280;2024-03-02T10:27:57;6.38;;;3.72;;
79638;SDS011;69114;49.108;8.280;2024-03-02T10:30:23;4.05;;;3.20;;
79638;SDS011;69114;49.108;8.280;2024-03-02T10:32:49;5.75;;;3.83;;
79638;SDS011;69114;49.108;8.280;2024-03-02T10:35:24;4.25;;;3.05;;
79638;SDS011;69114;49.108;8.280;2024-03-02T10:37:50;4.30;;;3.05;;
79638;SDS011;69114;49.108;8.280;2024-03-02T10:40:17;3.60;;;3.00;;
79638;SDS011;69114;49.108;8.280;2024-03-02T10:42:43;3.75;;;2.92;;
79638;SDS011;69114;49.108;8.280;2024-03-02T10:45:10;6.15;;;3.05;;
79638;SDS011;69114;49.108;8.280;2024-03-02T10:47:37;4.28;;;3.03;;
79638;SDS011;69114;49.108;8.280;2024-03-02T10:50:06;4.75;;;3.22;;
79638;SDS011;69114;49.108;8.280;2024-03-02T10:52:34;5.00;;;2.67;;
79638;SDS011;69114;49.108;8.280;2024-03-02T10:55:04;6.43;;;3.42;;
79638;SDS011;69114;49.108;8.280;2024-03-02T10:57:41;9.75;;;4.70;;
79638;SDS011;69114;49.108;8.280;2024-03-02T11:00:08;6.18;;;3.50;;
79638;SDS011;69114;49.108;8.280;2024-03-02T11:02:41;9.57;;;4.82;;
79638;SDS011;69114;49.108;8.280;2024-03-02T11:05:12;4.85;;;3.83;;
79638;SDS011;69114;49.108;8.280;2024-03-02T11:07:43;4.00;;;2.92;;
79638;SDS011;69114;49.108;8.280;2024-03-02T11:10:09;5.97;;;3.70;;
79638;SDS011;69114;49.108;8.280;2024-03-02T11:12:36;5.97;;;3.80;;
79638;SDS011;69114;49.108;8.280;2024-03-02T11:15:04;10.10;;;6.57;;
79638;SDS011;69114;49.108;8.280;2024-03-02T11:17:41;11.95;;;7.03;;
79638;SDS011;69114;49.108;8.280;2024-03-02T11:20:08;7.05;;;5.05;;
79638;SDS011;69114;49.108;8.280;2024-03-02T11:22:35;9.75;;;3.78;;
79638;SDS011;69114;49.108;8.280;2024-03-02T11:25:01;4.22;;;2.60;;
79638;SDS011;69114;49.108;8.280;2024-03-02T11:30:47;6.38;;;3.20;;
79638;SDS011;69114;49.108;8.280;2024-03-02T11:32:59;5.45;;;2.90;;
79638;SDS011;69114;49.108;8.280;2024-03-02T11:35:25;4.85;;;3.25;;
79638;SDS011;69114;49.108;8.280;2024-03-02T11:37:51;5.10;;;3.30;;
79638;SDS011;69114;49.108;8.280;2024-03-02T11:40:23;3.75;;;2.78;;
79638;SDS011;69114;49.108;8.280;2024-03-02T11:42:50;5.25;;;3.00;;
79638;SDS011;69114;49.108;8.280;2024-03-02T11:45:25;4.47;;;2.80;;
79638;SDS011;69114;49.108;8.280;2024-03-02T11:47:51;3.63;;;2.60;;
79638;SDS011;69114;49.108;8.280;2024-03-02T11:50:34;3.60;;;2.50;;
79638;SDS011;69114;49.108;8.280;2024-03-02T11:53:08;3.55;;;2.58;;
79638;SDS011;69114;49.108;8.280;2024-03-02T11:55:35;3.53;;;2.70;;
79638;SDS011;69114;49.108;8.280;2024-03-02T11:58:02;4.78;;;2.90;;
79638;SDS011;69114;49.108;8.280;2024-03-02T12:00:28;3.55;;;2.53;;
79638;SDS011;69114;49.108;8.280;2024-03-02T12:03:04;3.00;;;2.00;;
79638;SDS011;69114;49.108;8.280;2024-03-02T12:05:33;6.13;;;2.17;;
79638;SDS011;69114;49.108;8.280;2024-03-02T12:08:03;5.45;;;2.90;;
79638;SDS011;69114;49.108;8.280;2024-03-02T12:10:30;16.90;;;2.97;;
79638;SDS011;69114;49.108;8.280;2024-03-02T12:12:56;9.90;;;2.33;;
79638;SDS011;69114;49.108;8.280;2024-03-02T12:15:25;2.97;;;2.20;;
79638;SDS011;69114;49.108;8.280;2024-03-02T12:17:53;2.47;;;1.60;;
79638;SDS011;69114;49.108;8.280;2024-03-02T12:20:22;9.05;;;2.30;;
79638;SDS011;69114;49.108;8.280;2024-03-02T12:23:00;3.22;;;2.08;;
79638;SDS011;69114;49.108;8.280;2024-03-02T12:25:27;26.08;;;5.05;;
79638;SDS011;69114;49.108;8.280;2024-03-02T12:27:54;2.75;;;1.80;;
79638;SDS011;69114;49.108;8.280;2024-03-02T12:30:21;2.85;;;1.80;;
79638;SDS011;69114;49.108;8.280;2024-03-02T12:32:47;4.07;;;1.80;;
79638;SDS011;69114;49.108;8.280;2024-03-02T12:35:13;2.95;;;1.70;;
79638;SDS011;69114;49.108;8.280;2024-03-02T12:37:45;1.95;;;1.52;;
79638;SDS011;69114;49.108;8.280;2024-03-02T12:40:12;2.65;;;1.60;;
79638;SDS011;69114;49.108;8.280;2024-03-02T12:42:41;3.42;;;1.50;;
79638;SDS011;69114;49.108;8.280;2024-03-02T12:45:07;2.75;;;1.70;;
79638;SDS011;69114;49.108;8.280;2024-03-02T12:47:33;1.85;;;1.40;;
79638;SDS011;69114;49.108;8.280;2024-03-02T12:50:03;2.22;;;1.52;;
79638;SDS011;69114;49.108;8.280;2024-03-02T12:52:29;2.25;;;1.50;;
79638;SDS011;69114;49.108;8.280;2024-03-02T12:54:57;2.38;;;1.52;;
79638;SDS011;69114;49.108;8.280;2024-03-02T12:57:27;2.80;;;1.58;;
79638;SDS011;69114;49.108;8.280;2024-03-02T12:59:57;2.00;;;1.50;;
79638;SDS011;69114;49.108;8.280;2024-03-02T13:02:23;9.20;;;2.13;;
79638;SDS011;69114;49.108;8.280;2024-03-02T13:04:52;1.85;;;1.50;;
79638;SDS011;69114;49.108;8.280;2024-03-02T13:07:22;3.97;;;1.95;;
79638;SDS011;69114;49.108;8.280;2024-03-02T13:09:52;2.40;;;1.50;;
79638;SDS011;69114;49.108;8.280;2024-03-02T13:12:20;1.80;;;1.40;;
79638;SDS011;69114;49.108;8.280;2024-03-02T13:14:49;3.13;;;1.67;;
79638;SDS011;69114;49.108;8.280;2024-03-02T13:17:20;2.47;;;1.70;;
79638;SDS011;69114;49.108;8.280;2024-03-02T13:19:55;3.17;;;1.48;;
79638;SDS011;69114;49.108;8.280;2024-03-02T13:22:22;2.03;;;1.42;;
79638;SDS011;69114;49.108;8.280;2024-03-02T13:24:48;3.08;;;1.55;;
79638;SDS011;69114;49.108;8.280;2024-03-02T13:27:14;2.60;;;1.45;;
79638;SDS011;69114;49.108;8.280;2024-03-02T13:29:41;2.00;;;1.45;;
79638;SDS011;69114;49.108;8.280;2024-03-02T13:32:06;2.47;;;1.50;;
79638;SDS011;69114;49.108;8.280;2024-03-02T13:34:32;2.95;;;1.75;;
79638;SDS011;69114;49.108;8.280;2024-03-02T13:36:57;2.40;;;1.60;;
79638;SDS011;69114;49.108;8.280;2024-03-02T13:39:23;2.42;;;1.55;;
79638;SDS011;69114;49.108;8.280;2024-03-02T13:41:48;2.78;;;1.80;;
79638;SDS011;69114;49.108;8.280;2024-03-02T13:44:21;2.80;;;2.10;;
79638;SDS011;69114;49.108;8.280;2024-03-02T13:46:47;2.78;;;1.73;;
79638;SDS011;69114;49.108;8.280;2024-03-02T13:49:13;3.42;;;1.80;;
79638;SDS011;69114;49.108;8.280;2024-03-02T13:51:39;3.55;;;1.75;;
79638;SDS011;69114;49.108;8.280;2024-03-02T13:54:04;3.75;;;1.88;;
79638;SDS011;69114;49.108;8.280;2024-03-02T13:56:30;2.72;;;1.80;;
79638;SDS011;69114;49.108;8.280;2024-03-02T13:58:56;2.10;;;1.65;;
79638;SDS011;69114;49.108;8.280;2024-03-02T14:01:21;2.35;;;1.58;;
79638;SDS011;69114;49.108;8.280;2024-03-02T14:03:47;2.85;;;1.77;;
79638;SDS011;69114;49.108;8.280;2024-03-02T14:06:12;38.95;;;12.77;;
79638;SDS011;69114;49.108;8.280;2024-03-02T14:08:38;3.63;;;1.92;;
79638;SDS011;69114;49.108;8.280;2024-03-02T14:11:03;2.92;;;2.03;;
79638;SDS011;69114;49.108;8.280;2024-03-02T14:13:28;2.30;;;1.70;;
79638;SDS011;69114;49.108;8.280;2024-03-02T14:15:54;3.03;;;1.90;;
79638;SDS011;69114;49.108;8.280;2024-03-02T14:18:20;2.75;;;2.15;;
79638;SDS011;69114;49.108;8.280;2024-03-02T14:20:46;3.78;;;2.05;;
79638;SDS011;69114;49.108;8.280;2024-03-02T14:23:17;18.77;;;6.25;;
79638;SDS011;69114;49.108;8.280;2024-03-02T14:25:53;2.72;;;2.03;;
79638;SDS011;69114;49.108;8.280;2024-03-02T14:28:18;3.22;;;2.10;;
79638;SDS011;69114;49.108;8.280;2024-03-02T14:30:44;3.58;;;1.92;;
79638;SDS011;69114;49.108;8.280;2024-03-02T14:33:09;3.30;;;2.30;;
79638;SDS011;69114;49.108;8.280;2024-03-02T14:35:35;3.30;;;2.05;;
79638;SDS011;69114;49.108;8.280;2024-03-02T14:38:01;2.72;;;1.80;;